Time;durP1;ratioP1;P1;durP2;ratioP2;P2;SDS_P1;SDS_P2;PMS_P1;PMS_P2;Temp;Humidity;BMP_temperature;BMP_pressure;BME280_temperature;BME280_humidity;BME280_pressure;Samples;Min_cycle;Max_cycle;Signal;HPM_P1;HPM_P2
2023/03/20 00:00:46;;;;;;;3.63;3.25;;;;;;;;;;5010636;28;20370;-74
2023/03/20 00:03:14;;;;;;;5.78;3.78;;;;;;;;;;5011049;28;20158;-74
2023/03/20 00:05:41;;;;;;;4.43;3.20;;;;;;;;;;5011418;28;20054;-75
2023/03/20 00:08:08;;;;;;;4.30;3.28;;;;;;;;;;5010456;28;20511;-74
2023/03/20 00:10:38;;;;;;;4.07;3.30;;;;;;;;;;5011130;28;20050;-75
2023/03/20 00:13:08;;;;;;;4.55;3.20;;;;;;;;;;5011231;28;20499;-74
2023/03/20 00:15:37;;;;;;;4.43;3.60;;;;;;;;;;5010883;28;20046;-74
2023/03/20 00:18:04;;;;;;;4.65;3.28;;;;;;;;;;5009498;28;20053;-75
2023/03/20 00:20:30;;;;;;;4.60;3.40;;;;;;;;;;5009626;28;20436;-74
2023/03/20 00:22:57;;;;;;;5.22;3.95;;;;;;;;;;5009915;28;20065;-75
2023/03/20 00:25:27;;;;;;;7.93;4.60;;;;;;;;;;5009985;28;20046;-75
2023/03/20 00:27:53;;;;;;;7.80;5.25;;;;;;;;;;5008946;28;20042;-75
2023/03/20 00:30:25;;;;;;;7.55;4.50;;;;;;;;;;5009849;28;20046;-75
2023/03/20 00:32:52;;;;;;;4.00;3.55;;;;;;;;;;5009628;28;20042;-74
2023/03/20 00:35:22;;;;;;;7.05;3.90;;;;;;;;;;5009397;28;20054;-74
2023/03/20 00:37:49;;;;;;;4.97;3.67;;;;;;;;;;5009070;28;20046;-74
2023/03/20 00:40:16;;;;;;;5.57;3.60;;;;;;;;;;5008862;28;20494;-75
2023/03/20 00:42:44;;;;;;;5.93;3.60;;;;;;;;;;5008966;28;20145;-74
2023/03/20 00:45:14;;;;;;;4.60;3.80;;;;;;;;;;5009205;28;20057;-74
2023/03/20 00:47:43;;;;;;;5.13;3.80;;;;;;;;;;5009785;28;20080;-74
2023/03/20 00:50:15;;;;;;;4.82;3.40;;;;;;;;;;5009211;28;20057;-74
2023/03/20 00:52:43;;;;;;;4.80;3.63;;;;;;;;;;5008894;28;20050;-75
2023/03/20 00:55:10;;;;;;;6.65;3.83;;;;;;;;;;5009444;28;20074;-74
2023/03/20 00:57:40;;;;;;;6.68;3.50;;;;;;;;;;5008970;28;20521;-74
2023/03/20 01:00:14;;;;;;;4.88;3.30;;;;;;;;;;5009292;28;20054;-74
2023/03/20 01:02:40;;;;;;;4.57;3.30;;;;;;;;;;5009770;28;20050;-75
2023/03/20 01:05:09;;;;;;;7.03;3.63;;;;;;;;;;5009932;28;20100;-74
2023/03/20 01:07:35;;;;;;;6.30;3.40;;;;;;;;;;5009427;28;20050;-75
2023/03/20 01:10:02;;;;;;;5.85;3.47;;;;;;;;;;5010045;28;20054;-74
2023/03/20 01:12:28;;;;;;;4.88;3.30;;;;;;;;;;5010494;28;20052;-74
2023/03/20 01:14:57;;;;;;;6.45;3.30;;;;;;;;;;5009935;28;20052;-75
2023/03/20 01:17:25;;;;;;;8.07;3.67;;;;;;;;;;5009609;28;20052;-74
2023/03/20 01:19:52;;;;;;;4.80;3.33;;;;;;;;;;5009580;28;20061;-75
2023/03/20 01:22:20;;;;;;;5.03;3.78;;;;;;;;;;5010285;28;20115;-74
2023/03/20 01:24:47;;;;;;;5.25;3.50;;;;;;;;;;5009715;28;20046;-75
2023/03/20 01:27:15;;;;;;;5.50;3.30;;;;;;;;;;5009584;28;20404;-74
2023/03/20 01:29:42;;;;;;;4.30;3.00;;;;;;;;;;5009419;28;20046;-74
2023/03/20 01:32:13;;;;;;;5.40;3.47;;;;;;;;;;5009444;28;20056;-74
2023/03/20 01:34:39;;;;;;;7.10;3.58;;;;;;;;;;5009079;28;20046;-75
2023/03/20 01:37:11;;;;;;;5.70;3.42;;;;;;;;;;5009125;28;20050;-75
2023/03/20 01:39:39;;;;;;;5.28;3.80;;;;;;;;;;5009222;28;20727;-75
2023/03/20 01:42:07;;;;;;;5.18;3.40;;;;;;;;;;5009282;28;20137;-74
2023/03/20 01:44:35;;;;;;;5.88;4.05;;;;;;;;;;5009006;28;20054;-74
2023/03/20 01:47:04;;;;;;;6.20;3.80;;;;;;;;;;5008837;28;20257;-75
2023/03/20 01:50:16;;;;;;;4.57;3.58;;;;;;;;;;5008843;28;20109;-75
2023/03/20 01:52:43;;;;;;;5.75;3.85;;;;;;;;;;5022300;28;20137;-75
2023/03/20 01:55:11;;;;;;;3.92;3.22;;;;;;;;;;5012800;28;20656;-75
2023/03/20 01:57:38;;;;;;;5.40;3.42;;;;;;;;;;5012729;28;20144;-74
2023/03/20 02:00:10;;;;;;;5.65;3.22;;;;;;;;;;5012841;28;20049;-75
2023/03/20 02:02:39;;;;;;;3.95;3.17;;;;;;;;;;5012534;28;20107;-74
2023/03/20 02:05:09;;;;;;;6.13;3.25;;;;;;;;;;5012666;28;20110;-74
2023/03/20 02:07:37;;;;;;;6.07;4.03;;;;;;;;;;5012733;28;20465;-74
2023/03/20 02:10:08;;;;;;;16.42;8.80;;;;;;;;;;5011925;28;20053;-75
2023/03/20 02:12:36;;;;;;;17.00;9.65;;;;;;;;;;5012709;28;20050;-75
2023/03/20 02:15:03;;;;;;;18.60;11.02;;;;;;;;;;5012754;28;20096;-75
2023/03/20 02:17:30;;;;;;;17.95;9.90;;;;;;;;;;5012457;28;20046;-74
2023/03/20 02:20:06;;;;;;;20.17;11.40;;;;;;;;;;5012728;28;20046;-75
2023/03/20 02:23:09;;;;;;;18.02;10.88;;;;;;;;;;5012490;28;20058;-74
2023/03/20 02:26:00;;;;;;;18.40;9.73;;;;;;;;;;5017268;28;20046;-75
2023/03/20 02:29:04;;;;;;;16.27;9.77;;;;;;;;;;5011965;28;20107;-74
2023/03/20 02:31:53;;;;;;;17.83;10.52;;;;;;;;;;5012227;28;20053;-75
2023/03/20 02:34:43;;;;;;;17.02;10.40;;;;;;;;;;5012080;28;20109;-74
2023/03/20 02:37:53;;;;;;;16.98;10.15;;;;;;;;;;5011825;28;20252;-74
2023/03/20 02:40:30;;;;;;;18.50;11.25;;;;;;;;;;4992437;28;20355;-75
2023/03/20 02:43:09;;;;;;;20.90;11.35;;;;;;;;;;5012218;28;20050;-74
2023/03/20 02:45:44;;;;;;;20.30;10.90;;;;;;;;;;5012275;28;20111;-74
2023/03/20 02:48:16;;;;;;;19.33;11.05;;;;;;;;;;5012015;28;20133;-75
2023/03/20 02:50:48;;;;;;;18.95;11.77;;;;;;;;;;5010888;28;20065;-74
2023/03/20 02:53:27;;;;;;;18.77;11.13;;;;;;;;;;5010975;28;20049;-74
2023/03/20 02:56:00;;;;;;;19.80;11.18;;;;;;;;;;5010653;28;20132;-74
2023/03/20 02:58:28;;;;;;;;;;;;;;;;;;5011190;28;20050;-74
2023/03/20 03:01:00;;;;;;;19.95;11.02;;;;;;;;;;5010682;28;20277;-75
2023/03/20 03:03:31;;;;;;;20.63;11.43;;;;;;;;;;5010486;28;20086;-75
2023/03/20 03:06:02;;;;;;;17.63;11.02;;;;;;;;;;5010889;28;20497;-75
2023/03/20 03:08:35;;;;;;;16.77;10.43;;;;;;;;;;5010418;28;20045;-75
2023/03/20 03:11:05;;;;;;;20.92;11.50;;;;;;;;;;5010696;28;20046;-75
2023/03/20 03:13:36;;;;;;;18.55;11.13;;;;;;;;;;5010407;28;20061;-74
2023/03/20 03:16:06;;;;;;;18.17;10.73;;;;;;;;;;5010615;28;20099;-74
2023/03/20 03:18:35;;;;;;;17.98;11.02;;;;;;;;;;5010338;28;20050;-75
2023/03/20 03:21:04;;;;;;;18.77;10.82;;;;;;;;;;5010588;28;20517;-75
2023/03/20 03:23:36;;;;;;;18.83;11.02;;;;;;;;;;5010658;28;20061;-75
2023/03/20 03:26:05;;;;;;;19.90;10.73;;;;;;;;;;5011069;28;20118;-75
2023/03/20 03:28:36;;;;;;;18.38;11.02;;;;;;;;;;5010130;28;20050;-74
2023/03/20 03:31:05;;;;;;;19.15;11.20;;;;;;;;;;5010603;28;20486;-75
2023/03/20 03:33:34;;;;;;;18.27;10.65;;;;;;;;;;5009996;28;20046;-74
2023/03/20 03:36:09;;;;;;;19.58;10.80;;;;;;;;;;5010294;28;20045;-75
2023/03/20 03:38:43;;;;;;;19.27;10.80;;;;;;;;;;5010348;28;20049;-76
2023/03/20 03:41:20;;;;;;;18.80;10.48;;;;;;;;;;5010228;28;20046;-76
2023/03/20 03:43:55;;;;;;;18.95;10.73;;;;;;;;;;5010248;28;20046;-76
2023/03/20 03:46:27;;;;;;;19.75;10.98;;;;;;;;;;5011000;28;20053;-76
2023/03/20 03:48:57;;;;;;;17.05;10.27;;;;;;;;;;5010029;28;20056;-76
2023/03/20 03:51:28;;;;;;;18.73;10.95;;;;;;;;;;5010613;28;20050;-76
2023/03/20 03:54:01;;;;;;;21.90;10.68;;;;;;;;;;5010251;28;20049;-76
2023/03/20 03:56:32;;;;;;;18.42;10.40;;;;;;;;;;5010498;28;20050;-76
2023/03/20 03:59:02;;;;;;;17.95;10.57;;;;;;;;;;5009789;28;20050;-76
2023/03/20 04:01:34;;;;;;;19.00;10.63;;;;;;;;;;5010379;28;20141;-76
2023/03/20 04:04:02;;;;;;;16.67;10.07;;;;;;;;;;5010272;28;20061;-76
2023/03/20 04:06:29;;;;;;;17.77;10.02;;;;;;;;;;5010299;28;20050;-76
2023/03/20 04:08:57;;;;;;;18.92;10.10;;;;;;;;;;5009866;28;20057;-76
2023/03/20 04:11:27;;;;;;;17.77;9.85;;;;;;;;;;5010427;28;20057;-76
2023/03/20 04:13:54;;;;;;;17.63;9.98;;;;;;;;;;5009735;28;20046;-76
2023/03/20 04:16:23;;;;;;;19.40;10.23;;;;;;;;;;5009118;28;20516;-76
2023/03/20 04:18:49;;;;;;;18.08;9.93;;;;;;;;;;5028630;23;20414;-68
2023/03/20 04:21:16;;;;;;;19.92;10.32;;;;;;;;;;5008644;28;20513;-68
2023/03/20 04:23:43;;;;;;;16.50;10.57;;;;;;;;;;5008814;28;20084;-68
2023/03/20 04:26:11;;;;;;;18.10;10.25;;;;;;;;;;5009071;28;20064;-68
2023/03/20 04:28:38;;;;;;;16.95;9.65;;;;;;;;;;5008580;28;20046;-68
2023/03/20 04:31:05;;;;;;;20.05;10.45;;;;;;;;;;5008917;28;20054;-68
2023/03/20 04:33:31;;;;;;;18.25;10.57;;;;;;;;;;5008467;28;20133;-68
2023/03/20 04:35:58;;;;;;;19.83;10.50;;;;;;;;;;5008072;28;20057;-68
2023/03/20 04:38:25;;;;;;;18.80;10.02;;;;;;;;;;5008325;28;20406;-68
2023/03/20 04:40:52;;;;;;;19.17;10.43;;;;;;;;;;5008491;28;20049;-68
2023/03/20 04:43:20;;;;;;;19.90;10.52;;;;;;;;;;5008563;28;20046;-68
2023/03/20 04:45:46;;;;;;;17.27;10.27;;;;;;;;;;5008803;28;20046;-68
2023/03/20 04:48:13;;;;;;;17.42;9.88;;;;;;;;;;5008112;28;20042;-68
2023/03/20 04:50:40;;;;;;;16.10;9.07;;;;;;;;;;5008571;28;20045;-68
2023/03/20 04:53:06;;;;;;;15.98;9.38;;;;;;;;;;5008297;28;20050;-68
2023/03/20 04:55:33;;;;;;;17.20;10.13;;;;;;;;;;5008469;28;20046;-68
2023/03/20 04:57:59;;;;;;;16.15;9.15;;;;;;;;;;5008116;28;20052;-68
2023/03/20 05:00:27;;;;;;;15.77;8.65;;;;;;;;;;5008255;28;20050;-68
2023/03/20 05:02:54;;;;;;;15.15;9.43;;;;;;;;;;5008131;28;20050;-68
2023/03/20 05:05:21;;;;;;;14.98;8.68;;;;;;;;;;5008293;28;20507;-68
2023/03/20 05:07:47;;;;;;;17.48;10.45;;;;;;;;;;5009348;28;20042;-68
2023/03/20 05:10:14;;;;;;;17.25;10.18;;;;;;;;;;5008047;28;20045;-68
2023/03/20 05:12:41;;;;;;;21.67;11.63;;;;;;;;;;5008489;28;20053;-68
2023/03/20 05:15:09;;;;;;;21.55;11.98;;;;;;;;;;5007975;28;20633;-68
2023/03/20 05:17:37;;;;;;;19.17;10.43;;;;;;;;;;5007674;28;20359;-68
2023/03/20 05:20:04;;;;;;;19.70;10.27;;;;;;;;;;5007853;28;20392;-68
2023/03/20 05:22:31;;;;;;;19.52;10.48;;;;;;;;;;5007837;28;20479;-68
2023/03/20 05:24:59;;;;;;;17.98;10.35;;;;;;;;;;5008322;28;20434;-68
2023/03/20 05:27:26;;;;;;;17.40;10.60;;;;;;;;;;5007032;28;20053;-68
2023/03/20 05:29:53;;;;;;;18.40;9.88;;;;;;;;;;5007681;28;20085;-68
2023/03/20 05:32:19;;;;;;;19.35;10.10;;;;;;;;;;5007778;28;20114;-68
2023/03/20 05:34:47;;;;;;;19.67;10.27;;;;;;;;;;5007914;28;20563;-68
2023/03/20 05:37:14;;;;;;;18.92;10.30;;;;;;;;;;5007520;28;20069;-68
2023/03/20 05:39:40;;;;;;;18.15;9.48;;;;;;;;;;5008094;28;20046;-68
2023/03/20 05:42:07;;;;;;;16.98;9.07;;;;;;;;;;5007550;28;20046;-67
2023/03/20 05:44:33;;;;;;;19.38;9.45;;;;;;;;;;5007290;28;20521;-68
2023/03/20 05:47:00;;;;;;;16.58;9.85;;;;;;;;;;5007124;28;20046;-68
2023/03/20 05:49:26;;;;;;;16.48;8.55;;;;;;;;;;5007562;28;20103;-67
2023/03/20 05:51:54;;;;;;;14.60;8.38;;;;;;;;;;5007574;28;20056;-68
2023/03/20 05:54:21;;;;;;;16.38;8.20;;;;;;;;;;5007287;28;20483;-68
2023/03/20 05:56:47;;;;;;;16.02;8.38;;;;;;;;;;5007488;28;20495;-68
2023/03/20 05:59:14;;;;;;;13.05;7.63;;;;;;;;;;5006947;28;20053;-68
2023/03/20 06:01:40;;;;;;;15.75;8.35;;;;;;;;;;5007394;28;20064;-68
2023/03/20 06:04:07;;;;;;;14.40;8.43;;;;;;;;;;5007099;28;20054;-68
2023/03/20 06:06:36;;;;;;;14.77;7.75;;;;;;;;;;5007487;28;20054;-68
2023/03/20 06:09:05;;;;;;;14.05;7.38;;;;;;;;;;5007070;28;20634;-68
2023/03/20 06:11:31;;;;;;;15.57;8.07;;;;;;;;;;5007150;28;20046;-68
2023/03/20 06:13:58;;;;;;;22.88;7.53;;;;;;;;;;5006679;28;20133;-68
2023/03/20 06:16:26;;;;;;;16.48;8.68;;;;;;;;;;5007458;28;20050;-68
2023/03/20 06:18:52;;;;;;;12.15;7.68;;;;;;;;;;5006909;28;20097;-68
2023/03/20 06:21:19;;;;;;;15.15;7.22;;;;;;;;;;5007264;28;20046;-68
2023/03/20 06:23:45;;;;;;;13.82;7.70;;;;;;;;;;5006842;28;20468;-68
2023/03/20 06:26:13;;;;;;;15.18;7.97;;;;;;;;;;5007180;28;20129;-68
2023/03/20 06:28:40;;;;;;;15.73;8.60;;;;;;;;;;5006490;28;20053;-68
2023/03/20 06:31:08;;;;;;;15.38;7.65;;;;;;;;;;5007689;28;20085;-68
2023/03/20 06:33:35;;;;;;;14.40;7.95;;;;;;;;;;5006590;28;20133;-68
2023/03/20 06:36:02;;;;;;;25.40;10.73;;;;;;;;;;5006984;28;20042;-68
2023/03/20 06:38:29;;;;;;;14.77;8.27;;;;;;;;;;5007784;28;20046;-67
2023/03/20 06:40:56;;;;;;;14.23;7.82;;;;;;;;;;5010221;28;20054;-68
2023/03/20 06:43:24;;;;;;;17.10;8.30;;;;;;;;;;5010136;28;20054;-68
2023/03/20 06:45:50;;;;;;;16.95;8.80;;;;;;;;;;5008047;28;20049;-68
2023/03/20 06:48:20;;;;;;;14.63;7.70;;;;;;;;;;5001761;28;20043;-68
2023/03/20 06:50:47;;;;;;;12.30;7.88;;;;;;;;;;5006822;28;20046;-68
2023/03/20 06:53:14;;;;;;;16.73;8.32;;;;;;;;;;5009875;28;20042;-68
2023/03/20 06:55:40;;;;;;;15.63;7.72;;;;;;;;;;5009561;28;20050;-67
2023/03/20 06:58:07;;;;;;;13.75;7.88;;;;;;;;;;5009845;28;20046;-68
2023/03/20 07:00:35;;;;;;;15.15;8.60;;;;;;;;;;5009292;28;20046;-68
2023/03/20 07:03:01;;;;;;;14.13;7.05;;;;;;;;;;5010038;28;20056;-68
2023/03/20 07:05:28;;;;;;;14.35;7.68;;;;;;;;;;5009522;28;20049;-68
2023/03/20 07:07:54;;;;;;;11.60;6.47;;;;;;;;;;5009489;28;20416;-70
2023/03/20 07:10:22;;;;;;;13.20;7.40;;;;;;;;;;5001164;28;20415;-70
2023/03/20 07:12:49;;;;;;;14.23;7.93;;;;;;;;;;5012335;28;20037;-69
2023/03/20 07:15:16;;;;;;;14.88;8.10;;;;;;;;;;5009163;28;20082;-70
2023/03/20 07:17:44;;;;;;;13.88;7.53;;;;;;;;;;5008539;28;20077;-71
2023/03/20 07:20:12;;;;;;;16.60;8.57;;;;;;;;;;5013281;28;20624;-70
2023/03/20 07:22:41;;;;;;;13.40;7.25;;;;;;;;;;5015053;28;20045;-71
2023/03/20 07:25:09;;;;;;;13.27;7.63;;;;;;;;;;5011958;28;20057;-70
2023/03/20 07:27:36;;;;;;;15.90;7.80;;;;;;;;;;5012921;28;20049;-70
2023/03/20 07:30:04;;;;;;;16.67;7.93;;;;;;;;;;5017216;28;20486;-68
2023/03/20 07:32:30;;;;;;;15.35;8.43;;;;;;;;;;5012253;28;20133;-68
2023/03/20 07:34:58;;;;;;;12.80;7.50;;;;;;;;;;5016183;28;20126;-65
2023/03/20 07:37:25;;;;;;;14.30;7.50;;;;;;;;;;5021256;28;20050;-68
2023/03/20 07:39:52;;;;;;;13.27;7.38;;;;;;;;;;5020105;28;20052;-68
2023/03/20 07:42:18;;;;;;;12.85;7.70;;;;;;;;;;5018470;28;20046;-66
2023/03/20 07:44:45;;;;;;;13.05;8.30;;;;;;;;;;5008699;28;20046;-69
2023/03/20 07:47:11;;;;;;;15.50;8.32;;;;;;;;;;4994855;28;20054;-69
2023/03/20 07:49:38;;;;;;;14.60;7.22;;;;;;;;;;5006893;28;20331;-70
2023/03/20 07:52:06;;;;;;;12.82;7.40;;;;;;;;;;4989735;28;20054;-69
2023/03/20 07:54:33;;;;;;;13.07;8.25;;;;;;;;;;4989800;28;20130;-67
2023/03/20 07:57:00;;;;;;;11.35;7.30;;;;;;;;;;4989333;28;20054;-69
2023/03/20 07:59:27;;;;;;;13.65;6.90;;;;;;;;;;4989884;28;20057;-68
2023/03/20 08:01:53;;;;;;;13.25;7.30;;;;;;;;;;4989131;28;20050;-69
2023/03/20 08:04:21;;;;;;;14.13;7.38;;;;;;;;;;4989482;28;20054;-69
2023/03/20 08:06:48;;;;;;;14.35;7.28;;;;;;;;;;4989264;28;20070;-68
2023/03/20 08:09:16;;;;;;;14.32;7.47;;;;;;;;;;4989533;28;20053;-70
2023/03/20 08:11:43;;;;;;;12.70;7.47;;;;;;;;;;4989408;28;20556;-69
2023/03/20 08:14:10;;;;;;;12.95;6.93;;;;;;;;;;4989068;28;20068;-69
2023/03/20 08:16:36;;;;;;;12.57;6.90;;;;;;;;;;4988929;28;20054;-67
2023/03/20 08:19:05;;;;;;;13.77;7.38;;;;;;;;;;4989052;28;20089;-69
2023/03/20 08:21:32;;;;;;;14.60;7.35;;;;;;;;;;4989542;28;20108;-69
2023/03/20 08:23:59;;;;;;;14.23;7.63;;;;;;;;;;4988653;28;20049;-68
2023/03/20 08:26:27;;;;;;;16.85;7.90;;;;;;;;;;4989307;28;20046;-69
2023/03/20 08:28:53;;;;;;;15.75;8.13;;;;;;;;;;4988486;28;20104;-69
2023/03/20 08:31:20;;;;;;;13.23;7.20;;;;;;;;;;5007135;28;20041;-69
2023/03/20 08:33:47;;;;;;;13.43;7.53;;;;;;;;;;5018803;28;20042;-70
2023/03/20 08:36:15;;;;;;;13.80;7.53;;;;;;;;;;5004177;28;20507;-69
2023/03/20 08:38:42;;;;;;;12.25;6.90;;;;;;;;;;4988330;28;20054;-68
2023/03/20 08:41:09;;;;;;;12.05;6.55;;;;;;;;;;4996177;28;20042;-67
2023/03/20 08:43:38;;;;;;;14.15;6.63;;;;;;;;;;5015624;28;20263;-67
2023/03/20 08:46:05;;;;;;;12.27;6.85;;;;;;;;;;5008691;28;20049;-67
2023/03/20 08:48:32;;;;;;;13.60;6.95;;;;;;;;;;5008070;28;20073;-67
2023/03/20 08:50:59;;;;;;;12.43;6.82;;;;;;;;;;5008617;28;20517;-68
2023/03/20 08:53:26;;;;;;;12.50;6.82;;;;;;;;;;4998441;28;20228;-69
2023/03/20 08:55:54;;;;;;;11.88;7.05;;;;;;;;;;4987902;28;20131;-69
2023/03/20 08:58:21;;;;;;;13.02;6.78;;;;;;;;;;4990301;28;20476;-69
2023/03/20 09:00:49;;;;;;;17.70;7.72;;;;;;;;;;4987791;28;20082;-69
2023/03/20 09:03:18;;;;;;;13.98;7.32;;;;;;;;;;4988237;28;20411;-69
2023/03/20 09:05:45;;;;;;;13.10;7.38;;;;;;;;;;4988213;28;20398;-69
2023/03/20 09:08:12;;;;;;;12.45;7.00;;;;;;;;;;4988212;28;20046;-69
2023/03/20 09:10:39;;;;;;;10.48;5.68;;;;;;;;;;4988024;28;20129;-68
2023/03/20 09:13:06;;;;;;;12.35;6.65;;;;;;;;;;4988560;28;20488;-68
2023/03/20 09:15:33;;;;;;;11.55;6.20;;;;;;;;;;4988754;28;20514;-69
2023/03/20 09:18:01;;;;;;;11.75;6.60;;;;;;;;;;4988049;28;20056;-68
2023/03/20 09:20:28;;;;;;;11.40;5.97;;;;;;;;;;4988506;28;20069;-68
2023/03/20 09:22:56;;;;;;;10.05;5.75;;;;;;;;;;4988114;28;20069;-68
2023/03/20 09:25:22;;;;;;;10.43;5.82;;;;;;;;;;4988135;28;20056;-68
2023/03/20 09:27:54;;;;;;;10.63;5.75;;;;;;;;;;4988216;28;20389;-67
2023/03/20 09:30:21;;;;;;;9.45;5.47;;;;;;;;;;4988551;28;20409;-68
2023/03/20 09:32:48;;;;;;;8.30;5.20;;;;;;;;;;4988155;28;20047;-68
2023/03/20 09:35:16;;;;;;;8.48;5.00;;;;;;;;;;4987294;28;20439;-68
2023/03/20 09:37:43;;;;;;;12.93;5.25;;;;;;;;;;4998228;28;20046;-67
2023/03/20 09:40:22;;;;;;;9.95;5.65;;;;;;;;;;5005750;28;20393;-67
2023/03/20 09:42:57;;;;;;;9.50;5.43;;;;;;;;;;5007577;28;20057;-68
2023/03/20 09:45:36;;;;;;;10.80;6.32;;;;;;;;;;5007854;28;20056;-67
2023/03/20 09:48:08;;;;;;;12.32;6.43;;;;;;;;;;5007244;28;20046;-68
2023/03/20 09:50:39;;;;;;;9.07;5.05;;;;;;;;;;5007067;28;20054;-66
2023/03/20 09:53:11;;;;;;;9.13;5.30;;;;;;;;;;5007826;28;20046;-68
2023/03/20 09:55:40;;;;;;;8.13;5.15;;;;;;;;;;5007374;28;20259;-67
2023/03/20 09:58:13;;;;;;;7.32;4.90;;;;;;;;;;5007551;28;20122;-68
2023/03/20 10:00:42;;;;;;;11.38;4.78;;;;;;;;;;5007011;28;20049;-67
2023/03/20 10:03:18;;;;;;;7.57;4.97;;;;;;;;;;5007357;28;20060;-67
2023/03/20 10:05:50;;;;;;;8.93;5.15;;;;;;;;;;5007178;28;20166;-68
2023/03/20 10:08:22;;;;;;;8.85;5.03;;;;;;;;;;5006006;28;20426;-68
2023/03/20 10:10:52;;;;;;;7.47;4.93;;;;;;;;;;5006985;28;20179;-68
2023/03/20 10:13:52;;;;;;;9.10;5.32;;;;;;;;;;5008051;28;20054;-68
2023/03/20 10:16:30;;;;;;;7.00;4.40;;;;;;;;;;4988102;28;20103;-67
2023/03/20 10:19:02;;;;;;;8.70;5.00;;;;;;;;;;5012896;23;20532;-62
2023/03/20 10:21:36;;;;;;;10.38;5.53;;;;;;;;;;4986478;28;20050;-60
2023/03/20 10:24:05;;;;;;;8.27;4.85;;;;;;;;;;4990873;28;20509;-59
2023/03/20 10:26:34;;;;;;;9.13;4.75;;;;;;;;;;4990612;28;20206;-60
2023/03/20 10:29:06;;;;;;;10.90;5.60;;;;;;;;;;4990266;28;20551;-59
2023/03/20 10:31:43;;;;;;;8.70;4.97;;;;;;;;;;4988323;28;20042;-60
2023/03/20 10:34:25;;;;;;;9.25;5.22;;;;;;;;;;4969699;28;20196;-59
2023/03/20 10:37:05;;;;;;;7.30;4.57;;;;;;;;;;4988369;28;20050;-61
2023/03/20 10:39:49;;;;;;;7.90;4.60;;;;;;;;;;4989212;28;20673;-62
2023/03/20 10:42:21;;;;;;;8.20;4.55;;;;;;;;;;4990673;28;20195;-62
2023/03/20 10:44:54;;;;;;;10.23;4.53;;;;;;;;;;4989846;28;20053;-60
2023/03/20 10:47:23;;;;;;;;;;;;;;;;;;4988567;28;20058;-60
2023/03/20 10:49:54;;;;;;;8.40;4.43;;;;;;;;;;4988973;28;19928;-59
2023/03/20 10:52:26;;;;;;;10.18;4.53;;;;;;;;;;4990568;28;20133;-60
2023/03/20 10:54:58;;;;;;;8.68;4.75;;;;;;;;;;4987196;28;20486;-60
2023/03/20 10:57:27;;;;;;;7.20;4.32;;;;;;;;;;4989842;28;20053;-61
2023/03/20 10:59:56;;;;;;;10.90;4.20;;;;;;;;;;4990635;28;20316;-61
2023/03/20 11:02:26;;;;;;;7.70;4.82;;;;;;;;;;4989858;28;20518;-59
2023/03/20 11:04:52;;;;;;;7.07;3.92;;;;;;;;;;4989181;28;20103;-59
2023/03/20 11:07:26;;;;;;;5.38;3.53;;;;;;;;;;4989503;28;20506;-61
2023/03/20 11:10:13;;;;;;;7.45;3.80;;;;;;;;;;4990051;28;20046;-60
2023/03/20 11:12:41;;;;;;;6.38;4.13;;;;;;;;;;4989439;28;20520;-60
2023/03/20 11:15:20;;;;;;;6.47;4.15;;;;;;;;;;4989658;28;20061;-61
2023/03/20 11:17:52;;;;;;;7.63;4.47;;;;;;;;;;4989183;28;20054;-60
2023/03/20 11:20:19;;;;;;;8.23;4.10;;;;;;;;;;4988436;28;20042;-61
2023/03/20 11:22:49;;;;;;;8.07;4.18;;;;;;;;;;4989329;28;20042;-61
2023/03/20 11:25:30;;;;;;;8.15;4.68;;;;;;;;;;4988895;28;20049;-61
2023/03/20 11:27:58;;;;;;;7.07;4.47;;;;;;;;;;4989489;28;20049;-60
2023/03/20 11:30:25;;;;;;;8.57;4.97;;;;;;;;;;4989404;28;20568;-61
2023/03/20 11:32:55;;;;;;;8.82;4.25;;;;;;;;;;4990039;28;20050;-61
2023/03/20 11:35:30;;;;;;;7.05;4.10;;;;;;;;;;4988600;28;20050;-61
2023/03/20 11:38:10;;;;;;;6.47;3.53;;;;;;;;;;4989626;28;20043;-61
2023/03/20 11:40:37;;;;;;;8.15;4.80;;;;;;;;;;4989335;28;20093;-61
2023/03/20 11:43:10;;;;;;;10.10;4.07;;;;;;;;;;4989325;28;20061;-61
2023/03/20 11:45:38;;;;;;;7.53;4.38;;;;;;;;;;4989512;28;20077;-60
2023/03/20 11:48:07;;;;;;;9.00;3.72;;;;;;;;;;4987672;28;20046;-61
2023/03/20 11:50:35;;;;;;;7.03;3.83;;;;;;;;;;4989262;28;20352;-61
2023/03/20 11:53:17;;;;;;;7.45;3.65;;;;;;;;;;4989330;28;20050;-61
2023/03/20 11:55:58;;;;;;;5.45;2.88;;;;;;;;;;4989480;28;20046;-61
2023/03/20 11:58:24;;;;;;;4.93;2.90;;;;;;;;;;4988858;28;20385;-63
2023/03/20 12:00:54;;;;;;;8.35;3.65;;;;;;;;;;4989533;28;20042;-58
2023/03/20 12:03:40;;;;;;;6.70;3.13;;;;;;;;;;4988845;28;20046;-59
2023/03/20 12:06:09;;;;;;;6.63;3.40;;;;;;;;;;4989830;28;20510;-60
2023/03/20 12:08:39;;;;;;;3.42;2.63;;;;;;;;;;4988829;28;20050;-60
2023/03/20 12:11:16;;;;;;;5.22;2.90;;;;;;;;;;4970501;28;20155;-60
2023/03/20 12:13:47;;;;;;;4.43;2.67;;;;;;;;;;4969396;28;20057;-60
2023/03/20 12:16:17;;;;;;;4.70;2.67;;;;;;;;;;4969434;28;20561;-60
2023/03/20 12:18:47;;;;;;;4.82;2.72;;;;;;;;;;4971519;28;20331;-61
2023/03/20 12:21:21;;;;;;;5.55;2.50;;;;;;;;;;4989162;28;20046;-60
2023/03/20 12:23:53;;;;;;;5.90;2.65;;;;;;;;;;4988903;28;20049;-60
2023/03/20 12:26:24;;;;;;;6.78;2.60;;;;;;;;;;4988822;28;20057;-60
2023/03/20 12:28:56;;;;;;;5.43;2.75;;;;;;;;;;4988510;28;20134;-60
2023/03/20 12:31:26;;;;;;;5.53;3.38;;;;;;;;;;4988680;28;20138;-57
2023/03/20 12:33:57;;;;;;;6.53;2.72;;;;;;;;;;4987755;28;20061;-60
2023/03/20 12:36:29;;;;;;;4.88;2.60;;;;;;;;;;4987577;28;20483;-59
2023/03/20 12:38:57;;;;;;;9.23;4.18;;;;;;;;;;4988533;28;20043;-61
2023/03/20 12:41:29;;;;;;;2.92;2.47;;;;;;;;;;4986237;28;20073;-59
2023/03/20 12:44:20;;;;;;;5.05;2.60;;;;;;;;;;4988394;28;20522;-60
2023/03/20 12:46:54;;;;;;;5.85;2.40;;;;;;;;;;4987940;28;20053;-61
2023/03/20 12:49:35;;;;;;;4.80;2.25;;;;;;;;;;4988388;28;20433;-60
2023/03/20 12:52:12;;;;;;;4.70;2.58;;;;;;;;;;4988540;28;20056;-59
2023/03/20 12:55:02;;;;;;;3.42;2.63;;;;;;;;;;4988574;28;20042;-60
2023/03/20 12:57:37;;;;;;;5.35;2.55;;;;;;;;;;4987760;28;20049;-60
2023/03/20 13:00:16;;;;;;;5.30;2.72;;;;;;;;;;4988982;28;20051;-60
2023/03/20 13:02:54;;;;;;;3.80;2.30;;;;;;;;;;4986280;28;20480;-61
2023/03/20 13:05:31;;;;;;;6.22;2.60;;;;;;;;;;5006415;28;20056;-58
2023/03/20 13:08:11;;;;;;;6.80;3.08;;;;;;;;;;5007342;28;20058;-59
2023/03/20 13:10:41;;;;;;;4.43;2.42;;;;;;;;;;5007773;28;20045;-60
2023/03/20 13:13:17;;;;;;;7.13;2.80;;;;;;;;;;5007838;28;20057;-60
2023/03/20 13:15:58;;;;;;;4.65;2.65;;;;;;;;;;5007810;28;20042;-60
2023/03/20 13:18:34;;;;;;;4.68;2.22;;;;;;;;;;5007483;28;20050;-60
2023/03/20 13:21:06;;;;;;;4.10;2.28;;;;;;;;;;5007718;28;20129;-60
2023/03/20 13:23:40;;;;;;;5.85;2.22;;;;;;;;;;4968489;28;20055;-59
2023/03/20 13:26:19;;;;;;;6.13;2.55;;;;;;;;;;4968767;28;20046;-59
2023/03/20 13:28:55;;;;;;;4.35;1.90;;;;;;;;;;4968537;28;20042;-59
2023/03/20 13:31:34;;;;;;;6.32;2.53;;;;;;;;;;4968110;28;20622;-60
2023/03/20 13:34:12;;;;;;;5.00;2.53;;;;;;;;;;4968551;28;20053;-59
2023/03/20 13:36:53;;;;;;;5.00;2.38;;;;;;;;;;4968309;28;20404;-59
2023/03/20 13:39:25;;;;;;;4.22;2.40;;;;;;;;;;4968615;28;20043;-60
2023/03/20 13:41:55;;;;;;;9.52;2.85;;;;;;;;;;4968232;28;20051;-60
2023/03/20 13:44:26;;;;;;;5.57;2.65;;;;;;;;;;4968425;28;20050;-61
2023/03/20 13:46:56;;;;;;;4.10;2.58;;;;;;;;;;4969286;28;20055;-60
2023/03/20 13:49:30;;;;;;;5.63;2.25;;;;;;;;;;4980514;28;20051;-60
2023/03/20 13:52:04;;;;;;;4.05;1.73;;;;;;;;;;4993822;28;20056;-60
2023/03/20 13:54:46;;;;;;;2.72;1.88;;;;;;;;;;4993945;28;20042;-59
2023/03/20 13:57:26;;;;;;;4.65;2.20;;;;;;;;;;4993654;28;20408;-57
2023/03/20 14:00:07;;;;;;;6.40;2.40;;;;;;;;;;4994083;28;20042;-60
2023/03/20 14:02:45;;;;;;;4.60;2.05;;;;;;;;;;4993743;28;20069;-60
2023/03/20 14:05:16;;;;;;;4.10;1.95;;;;;;;;;;4993512;28;20042;-60
2023/03/20 14:07:44;;;;;;;3.33;1.60;;;;;;;;;;4993793;28;20046;-58
2023/03/20 14:10:33;;;;;;;4.90;2.00;;;;;;;;;;4993728;28;20046;-60
2023/03/20 14:13:06;;;;;;;4.00;2.22;;;;;;;;;;4993256;28;20057;-60
2023/03/20 14:15:34;;;;;;;4.53;1.90;;;;;;;;;;4994543;28;20050;-60
2023/03/20 14:18:05;;;;;;;4.47;2.00;;;;;;;;;;4994099;28;20053;-59
2023/03/20 14:20:34;;;;;;;4.43;2.03;;;;;;;;;;4990526;28;20054;-60
2023/03/20 14:23:02;;;;;;;2.45;1.60;;;;;;;;;;4993614;28;20419;-59
2023/03/20 14:25:35;;;;;;;3.45;1.50;;;;;;;;;;4993820;28;20046;-58
2023/03/20 14:28:23;;;;;;;4.03;1.60;;;;;;;;;;4993713;28;20108;-60
2023/03/20 14:30:50;;;;;;;6.57;1.58;;;;;;;;;;4993867;28;20050;-60
2023/03/20 14:33:26;;;;;;;5.60;2.00;;;;;;;;;;4993194;28;20099;-60
2023/03/20 14:36:12;;;;;;;9.13;3.95;;;;;;;;;;4993731;28;20050;-60
2023/03/20 14:38:46;;;;;;;5.15;1.63;;;;;;;;;;4993431;28;20054;-60
2023/03/20 14:41:19;;;;;;;2.92;2.20;;;;;;;;;;4993708;28;20050;-60
2023/03/20 14:44:00;;;;;;;6.15;3.00;;;;;;;;;;4993326;28;20078;-59
2023/03/20 14:46:39;;;;;;;4.93;1.80;;;;;;;;;;4993760;28;20090;-59
2023/03/20 14:49:23;;;;;;;5.95;1.70;;;;;;;;;;4993311;28;20047;-62
2023/03/20 14:51:52;;;;;;;1.80;1.45;;;;;;;;;;4993868;28;20050;-60
2023/03/20 14:54:28;;;;;;;4.28;2.13;;;;;;;;;;4993261;28;20050;-60